createdAt,value
2017-09-08T00:02:04.462Z,8.68
2017-09-08T00:04:31.991Z,8.71
2017-09-08T00:06:59.522Z,8.69
2017-09-08T00:09:27.034Z,8.55
2017-09-08T00:11:54.540Z,8.67
2017-09-08T00:14:22.043Z,8.54
2017-09-08T00:16:49.549Z,8.56
2017-09-08T00:19:17.064Z,8.45
2017-09-08T00:21:45.483Z,8.47
2017-09-08T00:24:12.996Z,8.43
2017-09-08T00:26:40.612Z,8.36
2017-09-08T00:29:08.120Z,8.37
2017-09-08T00:31:35.628Z,8.39
2017-09-08T00:34:03.144Z,8.58
2017-09-08T00:36:30.674Z,8.45
2017-09-08T00:38:58.180Z,8.34
2017-09-08T00:41:25.699Z,8.23
2017-09-08T00:43:53.199Z,8.23
2017-09-08T00:46:20.723Z,8.23
2017-09-08T00:48:48.232Z,8.27
2017-09-08T00:51:15.762Z,8.15
2017-09-08T00:53:43.272Z,8.12
2017-09-08T00:56:10.787Z,8.16
2017-09-08T00:58:38.328Z,8.03
2017-09-08T01:01:05.835Z,8.12
2017-09-08T01:03:33.347Z,8.29
2017-09-08T01:06:00.896Z,8.22
2017-09-08T01:08:28.421Z,8.09
2017-09-08T01:10:55.919Z,8.12
2017-09-08T01:13:23.451Z,8.02
2017-09-08T01:15:50.954Z,8.02
2017-09-08T01:18:18.456Z,7.92
2017-09-08T01:20:45.966Z,7.88
2017-09-08T01:23:13.485Z,7.85
2017-09-08T01:25:41.013Z,7.82
2017-09-08T01:28:08.536Z,7.91
2017-09-08T01:30:36.040Z,7.92
2017-09-08T01:33:03.538Z,8.01
2017-09-08T01:35:31.045Z,8.18
2017-09-08T01:37:58.563Z,8.07
2017-09-08T01:40:26.059Z,7.85
2017-09-08T01:42:53.562Z,8.03
2017-09-08T01:45:22.072Z,7.98
2017-09-08T01:47:49.600Z,8.04
2017-09-08T01:50:17.153Z,8.29
2017-09-08T01:52:44.672Z,8.52
2017-09-08T01:55:12.192Z,8.79
2017-09-08T01:57:39.700Z,9.15
2017-09-08T02:00:07.252Z,9.17
2017-09-08T02:02:34.773Z,9.12
2017-09-08T02:05:02.281Z,9.19
2017-09-08T02:07:29.800Z,8.84
2017-09-08T02:09:57.319Z,8.99
2017-09-08T02:12:25.202Z,9.06
2017-09-08T02:14:52.719Z,9.24
2017-09-08T02:17:20.220Z,9.19
2017-09-08T02:19:47.723Z,9.14
2017-09-08T02:22:15.232Z,8.84
2017-09-08T02:24:42.748Z,8.70
2017-09-08T02:27:10.251Z,8.44
2017-09-08T02:29:37.760Z,8.38
2017-09-08T02:32:05.272Z,8.34
2017-09-08T02:34:32.771Z,8.26
2017-09-08T02:37:00.277Z,8.27
2017-09-08T02:39:27.789Z,8.18
2017-09-08T02:41:55.317Z,8.13
2017-09-08T02:44:23.002Z,8.01
2017-09-08T02:46:50.536Z,8.01
2017-09-08T02:49:18.042Z,8.05
2017-09-08T02:51:45.556Z,8.07
2017-09-08T02:54:13.054Z,7.94
2017-09-08T02:56:40.556Z,7.88
2017-09-08T02:59:08.066Z,7.81
2017-09-08T03:01:35.567Z,7.77
2017-09-08T03:04:03.103Z,7.99
2017-09-08T03:06:30.624Z,8.00
2017-09-08T03:08:58.138Z,7.98
2017-09-08T03:11:25.655Z,8.04
2017-09-08T03:13:53.155Z,7.78
2017-09-08T03:16:20.661Z,7.73
2017-09-08T03:18:48.166Z,7.62
2017-09-08T03:21:15.677Z,7.76
2017-09-08T03:23:43.186Z,7.84
2017-09-08T03:26:10.695Z,7.78
2017-09-08T03:28:38.199Z,7.64
2017-09-08T03:31:05.706Z,7.47
2017-09-08T03:33:33.214Z,7.47
2017-09-08T03:36:00.724Z,7.55
2017-09-08T03:38:28.247Z,7.56
2017-09-08T03:40:55.742Z,7.60
2017-09-08T03:43:23.261Z,7.59
2017-09-08T03:45:50.756Z,7.64
2017-09-08T03:48:18.279Z,7.58
2017-09-08T03:50:45.796Z,7.72
2017-09-08T03:53:13.317Z,7.75
2017-09-08T03:55:40.828Z,7.72
2017-09-08T03:58:08.359Z,7.73
2017-09-08T04:00:35.862Z,7.93
2017-09-08T04:03:03.376Z,7.74
2017-09-08T04:05:30.895Z,7.73
2017-09-08T04:07:58.427Z,7.64
2017-09-08T04:10:25.939Z,7.55
2017-09-08T04:12:53.449Z,7.65
2017-09-08T04:15:20.994Z,7.73
2017-09-08T04:17:48.545Z,7.81
2017-09-08T04:20:16.054Z,7.60
2017-09-08T04:22:43.558Z,7.55
2017-09-08T04:25:12.076Z,7.94
2017-09-08T04:27:39.583Z,7.79
2017-09-08T04:30:07.091Z,7.58
2017-09-08T04:32:34.616Z,7.59
2017-09-08T04:35:02.123Z,7.71
2017-09-08T04:37:29.623Z,7.90
2017-09-08T04:39:57.131Z,7.86
2017-09-08T04:42:24.651Z,8.08
2017-09-08T04:44:52.159Z,7.92
2017-09-08T04:47:19.665Z,8.01
2017-09-08T04:49:47.175Z,8.11
2017-09-08T04:52:14.680Z,7.92
2017-09-08T04:54:42.200Z,7.93
2017-09-08T04:57:09.702Z,7.97
2017-09-08T04:59:38.051Z,8.04
2017-09-08T05:02:05.573Z,8.37
2017-09-08T05:04:33.089Z,8.53
2017-09-08T05:07:00.595Z,8.72
2017-09-08T05:09:28.123Z,8.80
2017-09-08T05:11:55.646Z,8.81
2017-09-08T05:14:23.156Z,8.67
2017-09-08T05:16:50.672Z,8.76
2017-09-08T05:19:18.193Z,8.65
2017-09-08T05:21:45.716Z,9.00
2017-09-08T05:24:13.247Z,9.01
2017-09-08T05:26:41.206Z,9.28
2017-09-08T05:29:08.711Z,9.39
2017-09-08T05:31:36.206Z,9.25
2017-09-08T05:34:03.704Z,9.48
2017-09-08T05:36:31.220Z,9.35
2017-09-08T05:38:58.735Z,9.54
2017-09-08T05:41:26.252Z,9.78
2017-09-08T05:43:53.755Z,9.96
2017-09-08T05:46:21.276Z,10.11
2017-09-08T05:48:48.808Z,10.31
2017-09-08T05:51:16.346Z,10.71
2017-09-08T05:53:43.860Z,11.14
2017-09-08T05:56:11.371Z,11.24
2017-09-08T05:58:38.900Z,11.65
2017-09-08T06:01:06.462Z,11.70
2017-09-08T06:03:33.978Z,11.41
2017-09-08T06:06:01.493Z,11.34
2017-09-08T06:08:29.024Z,11.29
2017-09-08T06:10:56.523Z,11.10
2017-09-08T06:13:24.150Z,11.15
2017-09-08T06:15:51.694Z,11.14
2017-09-08T06:18:19.210Z,11.19
2017-09-08T06:20:46.747Z,11.26
2017-09-08T06:23:14.269Z,11.21
2017-09-08T06:25:41.785Z,11.31
2017-09-08T06:28:09.311Z,11.42
2017-09-08T06:30:36.829Z,11.33
2017-09-08T06:33:04.350Z,11.56
2017-09-08T06:35:31.869Z,11.79
2017-09-08T06:37:59.379Z,11.85
2017-09-08T06:40:26.899Z,11.58
2017-09-08T06:42:54.431Z,11.96
2017-09-08T06:45:21.945Z,11.93
2017-09-08T06:47:49.455Z,12.48
2017-09-08T06:50:16.963Z,12.39
2017-09-08T06:52:44.468Z,12.47
2017-09-08T06:55:12.007Z,12.55
2017-09-08T06:57:39.525Z,13.93
2017-09-08T07:00:07.058Z,14.57
2017-09-08T07:02:34.580Z,14.74
2017-09-08T07:05:02.078Z,15.05
2017-09-08T07:07:29.582Z,16.75
2017-09-08T07:09:57.098Z,17.98
2017-09-08T07:12:24.623Z,17.90
2017-09-08T07:14:52.126Z,18.45
2017-09-08T07:17:19.758Z,19.40
2017-09-08T07:19:47.300Z,18.32
2017-09-08T07:22:14.826Z,18.00
2017-09-08T07:24:42.335Z,17.87
2017-09-08T07:27:09.862Z,17.58
2017-09-08T07:29:37.375Z,16.69
2017-09-08T07:32:04.889Z,17.02
2017-09-08T07:34:32.524Z,17.06
2017-09-08T07:37:00.050Z,16.55
2017-09-08T07:39:27.562Z,16.60
2017-09-08T07:41:55.063Z,15.87
2017-09-08T07:44:22.564Z,15.99
2017-09-08T07:46:50.080Z,15.71
2017-09-08T07:49:17.583Z,15.83
2017-09-08T07:51:45.421Z,15.41
2017-09-08T07:54:12.940Z,15.70
2017-09-08T07:56:40.587Z,15.91
2017-09-08T07:59:08.094Z,16.15
2017-09-08T08:01:35.803Z,16.51
2017-09-08T08:04:03.317Z,17.25
2017-09-08T08:06:30.827Z,17.02
2017-09-08T08:08:58.326Z,16.45
2017-09-08T08:11:25.842Z,17.39
2017-09-08T08:13:53.370Z,17.04
2017-09-08T08:16:20.889Z,17.49
2017-09-08T08:18:48.403Z,17.78
2017-09-08T08:21:15.921Z,17.49
2017-09-08T08:23:43.434Z,17.44
2017-09-08T08:26:10.961Z,17.17
2017-09-08T08:28:38.467Z,17.15
2017-09-08T08:31:05.988Z,17.11
2017-09-08T08:33:33.539Z,17.36
2017-09-08T08:36:01.061Z,17.48
2017-09-08T08:38:28.587Z,17.27
2017-09-08T08:40:57.161Z,17.81
2017-09-08T08:43:24.662Z,18.84
2017-09-08T08:45:52.184Z,19.34
2017-09-08T08:48:19.705Z,18.10
2017-09-08T08:50:47.235Z,18.17
2017-09-08T08:53:14.747Z,18.55
2017-09-08T08:55:42.280Z,18.33
2017-09-08T08:58:10.036Z,18.96
2017-09-08T09:00:37.555Z,20.27
2017-09-08T09:03:05.075Z,20.58
2017-09-08T09:05:32.617Z,21.30
2017-09-08T09:08:00.421Z,21.74
2017-09-08T09:10:27.925Z,22.52
2017-09-08T09:12:55.433Z,23.99
2017-09-08T09:15:23.094Z,25.60
2017-09-08T09:17:50.759Z,26.53
2017-09-08T09:20:18.288Z,27.09
2017-09-08T09:22:45.792Z,25.78
2017-09-08T09:25:13.300Z,27.77
2017-09-08T09:27:40.852Z,29.43
2017-09-08T09:30:08.372Z,27.77
2017-09-08T09:32:35.876Z,29.88
2017-09-08T09:35:03.554Z,31.60
2017-09-08T09:37:31.084Z,29.24
2017-09-08T09:39:58.610Z,26.80
2017-09-08T09:42:26.129Z,25.17
2017-09-08T09:44:54.049Z,23.32
2017-09-08T09:47:21.590Z,22.58
2017-09-08T09:49:49.134Z,21.12
2017-09-08T09:52:16.685Z,21.12
2017-09-08T09:54:44.316Z,22.52
2017-09-08T09:57:11.857Z,23.69
2017-09-08T09:59:39.387Z,23.44
2017-09-08T10:02:06.897Z,23.47
2017-09-08T10:04:34.476Z,23.58
2017-09-08T10:07:02.009Z,22.85
2017-09-08T10:09:29.517Z,22.14
2017-09-08T10:11:57.044Z,22.05
2017-09-08T10:14:24.569Z,21.18
2017-09-08T10:16:52.076Z,21.00
2017-09-08T10:19:19.580Z,21.32
2017-09-08T10:21:47.191Z,21.26
2017-09-08T10:24:14.790Z,21.49
2017-09-08T10:26:42.307Z,21.90
2017-09-08T10:29:10.064Z,23.45
2017-09-08T10:31:37.726Z,23.39
2017-09-08T10:34:05.269Z,22.95
2017-09-08T10:36:32.781Z,22.16
2017-09-08T10:39:00.282Z,21.28
2017-09-08T10:41:27.811Z,23.39
2017-09-08T10:43:55.332Z,24.16
2017-09-08T10:46:22.951Z,23.52
2017-09-08T10:48:50.469Z,23.66
2017-09-08T10:51:18.171Z,21.99
2017-09-08T10:53:45.710Z,21.55
2017-09-08T10:56:13.368Z,21.56
2017-09-08T10:58:40.896Z,23.44
2017-09-08T11:01:08.428Z,22.82
2017-09-08T11:03:35.935Z,22.93
2017-09-08T11:06:03.470Z,23.88
2017-09-08T11:08:30.986Z,23.60
2017-09-08T11:10:58.496Z,23.12
2017-09-08T11:13:26.023Z,24.17
2017-09-08T11:15:53.649Z,24.12
2017-09-08T11:18:21.240Z,23.93
2017-09-08T11:20:48.775Z,23.00
2017-09-08T11:23:16.307Z,23.15
2017-09-08T11:25:43.827Z,23.23
2017-09-08T11:28:11.333Z,23.00
2017-09-08T11:30:38.858Z,22.54
2017-09-08T11:36:19.511Z,22.80
2017-09-08T11:38:47.168Z,24.73
2017-09-08T11:41:14.676Z,23.44
2017-09-08T11:43:42.197Z,22.80
2017-09-08T11:46:09.706Z,23.60
2017-09-08T11:48:37.238Z,23.82
2017-09-08T11:51:04.763Z,22.81
2017-09-08T11:53:32.300Z,23.21
2017-09-08T11:55:59.819Z,22.11
2017-09-08T11:58:27.363Z,23.16
2017-09-08T12:00:54.891Z,22.68
2017-09-08T12:03:22.398Z,22.35
2017-09-08T12:05:49.949Z,22.00
2017-09-08T12:08:17.464Z,21.87
2017-09-08T12:10:45.085Z,21.79
2017-09-08T12:13:12.594Z,21.98
2017-09-08T12:15:40.148Z,21.31
2017-09-08T12:18:07.664Z,21.08
2017-09-08T12:20:35.195Z,21.65
2017-09-08T12:23:02.713Z,21.66
2017-09-08T12:25:30.479Z,22.93
2017-09-08T12:27:58.234Z,23.28
2017-09-08T12:30:25.748Z,23.59
2017-09-08T12:32:53.261Z,23.30
2017-09-08T12:35:20.784Z,23.58
2017-09-08T12:37:48.313Z,24.59
2017-09-08T12:40:15.828Z,24.82
2017-09-08T12:42:43.345Z,26.11
2017-09-08T12:45:10.863Z,25.46
2017-09-08T12:47:38.383Z,24.44
2017-09-08T12:50:05.905Z,23.56
2017-09-08T12:52:33.412Z,22.34
2017-09-08T12:55:00.952Z,22.71
2017-09-08T12:57:28.479Z,22.57
2017-09-08T12:59:55.984Z,22.37
2017-09-08T13:02:23.524Z,22.12
2017-09-08T13:04:51.064Z,21.87
2017-09-08T13:07:18.579Z,22.11
2017-09-08T13:09:46.086Z,21.89
2017-09-08T13:12:20.687Z,21.58
2017-09-08T13:14:48.200Z,21.53
2017-09-08T13:17:15.711Z,22.26
2017-09-08T13:19:43.235Z,22.33
2017-09-08T13:22:10.847Z,22.95
2017-09-08T13:24:38.383Z,22.74
2017-09-08T13:27:05.910Z,21.87
2017-09-08T13:29:33.419Z,21.41
2017-09-08T13:32:00.930Z,21.58
2017-09-08T13:34:28.443Z,22.50
2017-09-08T13:36:55.962Z,22.05
2017-09-08T13:39:23.500Z,21.97
2017-09-08T13:41:51.053Z,22.03
2017-09-08T13:44:18.589Z,23.70
2017-09-08T13:46:46.100Z,23.93
2017-09-08T13:49:13.651Z,23.72
2017-09-08T13:51:41.162Z,23.71
2017-09-08T13:54:08.828Z,23.30
2017-09-08T13:56:36.344Z,23.77
2017-09-08T13:59:03.875Z,25.23
2017-09-08T14:01:31.450Z,24.53
2017-09-08T14:03:58.986Z,26.09
2017-09-08T14:06:26.709Z,24.90
2017-09-08T14:08:54.220Z,24.87
2017-09-08T14:11:21.757Z,24.54
2017-09-08T14:13:49.283Z,23.59
2017-09-08T14:16:16.787Z,23.91
2017-09-08T14:18:44.413Z,23.53
2017-09-08T14:21:12.200Z,22.64
2017-09-08T14:23:39.740Z,22.71
2017-09-08T14:26:07.296Z,21.89
2017-09-08T14:28:34.853Z,21.24
2017-09-08T14:31:02.540Z,21.60
2017-09-08T14:33:30.063Z,21.32
2017-09-08T14:35:57.660Z,21.43
2017-09-08T14:38:25.179Z,21.44
2017-09-08T14:40:52.709Z,20.81
2017-09-08T14:43:20.233Z,21.22
2017-09-08T14:45:47.758Z,21.32
2017-09-08T14:48:15.272Z,21.75
2017-09-08T14:50:42.792Z,21.66
2017-09-08T14:53:10.320Z,21.00
2017-09-08T14:55:37.840Z,21.53
2017-09-08T14:58:05.346Z,20.74
2017-09-08T15:00:32.861Z,20.67
2017-09-08T15:03:00.362Z,20.81
2017-09-08T15:05:27.884Z,20.40
2017-09-08T15:07:55.424Z,20.45
2017-09-08T15:10:22.938Z,20.76
2017-09-08T15:12:50.458Z,20.84
2017-09-08T15:15:17.990Z,20.84
2017-09-08T15:17:45.508Z,20.49
2017-09-08T15:20:13.038Z,20.04
2017-09-08T15:22:40.578Z,20.30
2017-09-08T15:25:08.147Z,20.14
2017-09-08T15:27:35.661Z,19.60
2017-09-08T15:30:03.180Z,19.89
2017-09-08T15:32:30.683Z,19.70
2017-09-08T15:34:58.227Z,19.34
2017-09-08T15:37:26.385Z,19.51
2017-09-08T15:39:54.007Z,19.42
2017-09-08T15:42:21.583Z,19.26
2017-09-08T15:44:49.203Z,19.21
2017-09-08T15:47:16.731Z,19.32
2017-09-08T15:49:44.248Z,19.46
2017-09-08T15:52:11.769Z,19.49
2017-09-08T15:54:39.381Z,19.11
2017-09-08T15:57:06.889Z,19.57
2017-09-08T15:59:34.419Z,19.28
2017-09-08T16:02:01.982Z,19.25
2017-09-08T16:04:29.505Z,19.08
2017-09-08T16:06:57.022Z,19.01
2017-09-08T16:09:24.587Z,19.05
2017-09-08T16:11:52.143Z,18.87
2017-09-08T16:14:19.653Z,18.80
2017-09-08T16:16:47.181Z,18.77
2017-09-08T16:19:14.708Z,18.61
2017-09-08T16:21:42.287Z,18.41
2017-09-08T16:24:09.834Z,18.39
2017-09-08T16:26:37.363Z,18.32
2017-09-08T16:29:04.887Z,18.19
2017-09-08T16:31:32.427Z,18.15
2017-09-08T16:33:59.967Z,18.22
2017-09-08T16:36:27.497Z,18.17
2017-09-08T16:38:55.038Z,18.16
2017-09-08T16:41:22.541Z,18.09
2017-09-08T16:43:50.040Z,17.84
2017-09-08T16:46:17.548Z,17.68
2017-09-08T16:48:45.069Z,17.78
2017-09-08T16:51:12.580Z,17.89
2017-09-08T16:53:40.103Z,17.88
2017-09-08T16:56:07.652Z,17.66
2017-09-08T16:58:35.182Z,17.64
2017-09-08T17:01:02.708Z,17.46
2017-09-08T17:03:30.243Z,17.49
2017-09-08T17:05:57.787Z,17.45
2017-09-08T17:08:25.313Z,17.41
2017-09-08T17:10:52.942Z,17.50
2017-09-08T17:13:20.548Z,17.41
2017-09-08T17:15:48.067Z,17.11
2017-09-08T17:18:15.566Z,16.63
2017-09-08T17:20:43.267Z,16.52
2017-09-08T17:23:10.779Z,16.33
2017-09-08T17:25:38.317Z,16.03
2017-09-08T17:28:05.823Z,15.78
2017-09-08T17:30:33.329Z,15.92
2017-09-08T17:33:00.834Z,15.67
2017-09-08T17:35:28.375Z,15.42
2017-09-08T17:37:56.043Z,15.11
2017-09-08T17:40:23.564Z,15.04
2017-09-08T17:42:51.107Z,15.10
2017-09-08T17:45:18.620Z,14.60
2017-09-08T17:47:46.282Z,14.57
2017-09-08T17:50:13.799Z,14.36
2017-09-08T17:52:41.344Z,13.92
2017-09-08T17:55:08.867Z,13.95
2017-09-08T17:57:36.375Z,13.83
2017-09-08T18:00:04.192Z,13.95
2017-09-08T18:02:31.997Z,13.95
2017-09-08T18:04:59.586Z,13.93
2017-09-08T18:07:27.109Z,13.63
2017-09-08T18:09:54.633Z,13.59
2017-09-08T18:12:22.149Z,13.42
2017-09-08T18:14:49.786Z,13.55
2017-09-08T18:17:17.344Z,13.62
2017-09-08T18:19:44.843Z,13.28
2017-09-08T18:22:12.765Z,13.24
2017-09-08T18:24:40.377Z,13.27
2017-09-08T18:27:07.895Z,13.19
2017-09-08T18:29:35.420Z,12.94
2017-09-08T18:32:02.943Z,12.90
2017-09-08T18:34:30.467Z,12.86
2017-09-08T18:36:57.978Z,12.71
2017-09-08T18:39:25.531Z,12.83
2017-09-08T18:41:53.099Z,12.96
2017-09-08T18:44:20.630Z,12.91
2017-09-08T18:46:48.181Z,12.88
2017-09-08T18:49:15.729Z,12.91
2017-09-08T18:51:43.232Z,12.99
2017-09-08T18:54:10.761Z,13.18
2017-09-08T18:56:38.289Z,13.14
2017-09-08T18:59:05.888Z,13.09
2017-09-08T19:01:33.400Z,12.99
2017-09-08T19:04:00.927Z,12.95
2017-09-08T19:06:28.435Z,13.05
2017-09-08T19:08:55.940Z,13.07
2017-09-08T19:11:23.452Z,12.94
2017-09-08T19:13:50.969Z,13.05
2017-09-08T19:16:18.482Z,13.30
2017-09-08T19:18:46.003Z,13.41
2017-09-08T19:21:13.559Z,13.71
2017-09-08T19:23:41.103Z,13.79
2017-09-08T19:26:08.618Z,13.73
2017-09-08T19:28:36.159Z,13.48
2017-09-08T19:31:03.704Z,13.36
2017-09-08T19:33:31.276Z,12.99
2017-09-08T19:35:58.808Z,12.96
2017-09-08T19:38:26.314Z,13.44
2017-09-08T19:40:53.844Z,13.44
2017-09-08T19:43:21.367Z,13.62
2017-09-08T19:45:48.896Z,13.26
2017-09-08T19:48:16.448Z,13.22
2017-09-08T19:50:44.060Z,13.32
2017-09-08T19:53:11.618Z,13.10
2017-09-08T19:55:39.139Z,12.83
2017-09-08T19:58:06.661Z,12.58
2017-09-08T20:00:34.183Z,12.77
2017-09-08T20:03:01.699Z,12.73
2017-09-08T20:05:29.208Z,12.60
2017-09-08T20:07:56.893Z,12.45
2017-09-08T20:10:24.403Z,12.36
2017-09-08T20:12:51.928Z,12.31
2017-09-08T20:15:19.470Z,12.39
2017-09-08T20:17:47.008Z,12.07
2017-09-08T20:20:14.545Z,11.97
2017-09-08T20:22:42.058Z,11.79
2017-09-08T20:25:09.647Z,11.71
2017-09-08T20:27:37.202Z,11.87
2017-09-08T20:30:04.726Z,11.82
2017-09-08T20:32:32.266Z,11.81
2017-09-08T20:34:59.812Z,11.81
2017-09-08T20:37:27.509Z,11.81
2017-09-08T20:39:55.037Z,11.76
2017-09-08T20:42:22.572Z,11.71
2017-09-08T20:44:50.076Z,11.73
2017-09-08T20:47:17.592Z,11.70
2017-09-08T20:49:45.136Z,11.53
2017-09-08T20:52:12.666Z,11.44
2017-09-08T20:54:40.207Z,11.67
2017-09-08T20:57:07.754Z,11.39
2017-09-08T20:59:35.256Z,11.43
2017-09-08T21:02:02.790Z,11.45
2017-09-08T21:04:30.302Z,11.38
2017-09-08T21:06:57.821Z,11.40
2017-09-08T21:09:25.374Z,11.52
2017-09-08T21:11:52.915Z,11.45
2017-09-08T21:14:20.550Z,11.26
2017-09-08T21:16:48.054Z,11.06
2017-09-08T21:19:15.582Z,10.95
2017-09-08T21:21:43.114Z,11.07
2017-09-08T21:24:10.644Z,11.00
2017-09-08T21:26:38.153Z,11.13
2017-09-08T21:29:05.666Z,10.96
2017-09-08T21:31:33.180Z,10.91
2017-09-08T21:34:00.687Z,11.01
2017-09-08T21:36:28.207Z,10.73
2017-09-08T21:38:55.743Z,10.70
2017-09-08T21:41:23.254Z,10.57
2017-09-08T21:43:50.850Z,10.80
2017-09-08T21:46:18.366Z,10.63
2017-09-08T21:48:45.882Z,10.68
2017-09-08T21:51:13.388Z,10.75
2017-09-08T21:53:40.898Z,10.88
2017-09-08T21:56:08.417Z,10.80
2017-09-08T21:58:35.954Z,10.74
2017-09-08T22:01:03.484Z,10.82
2017-09-08T22:03:30.996Z,10.86
2017-09-08T22:05:58.505Z,10.67
2017-09-08T22:08:26.023Z,10.74
2017-09-08T22:10:53.535Z,10.52
2017-09-08T22:13:21.058Z,10.59
2017-09-08T22:15:48.564Z,10.59
2017-09-08T22:18:16.084Z,10.63
2017-09-08T22:20:43.598Z,10.57
2017-09-08T22:23:11.407Z,10.36
2017-09-08T22:25:38.922Z,10.48
2017-09-08T22:28:06.440Z,10.44
2017-09-08T22:30:33.956Z,10.55
2017-09-08T22:33:01.467Z,10.51
2017-09-08T22:35:28.999Z,10.37
2017-09-08T22:37:56.503Z,10.30
2017-09-08T22:40:24.008Z,10.33
2017-09-08T22:42:51.541Z,9.97
2017-09-08T22:45:19.146Z,9.86
2017-09-08T22:47:46.689Z,9.94
2017-09-08T22:50:14.195Z,10.10
2017-09-08T22:52:41.731Z,9.98
2017-09-08T22:55:09.246Z,9.88
2017-09-08T22:57:36.790Z,9.91
2017-09-08T23:00:04.303Z,10.01
2017-09-08T23:02:31.824Z,9.99
2017-09-08T23:04:59.357Z,10.16
2017-09-08T23:07:26.891Z,10.14
2017-09-08T23:09:58.941Z,9.84
2017-09-08T23:12:26.440Z,9.80
2017-09-08T23:14:53.981Z,9.86
2017-09-08T23:17:21.499Z,9.83
2017-09-08T23:19:48.999Z,9.83
2017-09-08T23:22:16.529Z,9.75
2017-09-08T23:24:44.048Z,9.64
2017-09-08T23:27:11.566Z,9.85
2017-09-08T23:29:39.088Z,9.58
2017-09-08T23:32:06.603Z,9.72
2017-09-08T23:34:34.108Z,10.29
2017-09-08T23:37:01.626Z,9.99
2017-09-08T23:39:29.134Z,9.88
2017-09-08T23:41:56.646Z,9.90
2017-09-08T23:44:24.170Z,10.12
2017-09-08T23:46:51.673Z,10.01
2017-09-08T23:49:19.222Z,9.58
2017-09-08T23:51:46.739Z,9.56
2017-09-08T23:54:14.250Z,9.38
2017-09-08T23:56:41.763Z,9.34
2017-09-08T23:59:09.272Z,9.45
